Terminal Aerodrome Forecast
Issued by NWS Austin/San Antonio, TX

Home | Current Version | Previous Version | Text Only | Print | Product List | Glossary On
Versions: 1 2 3 4 5 6 7 8 9 10 11 12 13 14
788
FTUS44 KEWX 061134
TAFDRT
TAF
KDRT 061134Z 0612/0712 31005KT P6SM SKC
     FM061700 32012G22KT P6SM SKC
     FM070100 11005KT P6SM SKC=

USA.gov is the U.S. government's official web portal to all federal, state and local government web resources and services.